sensor_id;sensor_type;location;lat;lon;timestamp;P1;durP1;ratioP1;P2;durP2;ratioP2
10596;SDS011;5346;48.766;8.674;2023-07-20T00:01:23;3.08;;;2.22;;
10596;SDS011;5346;48.766;8.674;2023-07-20T00:03:52;2.85;;;2.08;;
10596;SDS011;5346;48.766;8.674;2023-07-20T00:06:30;3.13;;;2.10;;
10596;SDS011;5346;48.766;8.674;2023-07-20T00:09:05;5.10;;;2.40;;
10596;SDS011;5346;48.766;8.674;2023-07-20T00:11:48;2.80;;;1.90;;
10596;SDS011;5346;48.766;8.674;2023-07-20T00:14:24;5.10;;;2.10;;
10596;SDS011;5346;48.766;8.674;2023-07-20T00:17:00;4.32;;;2.60;;
10596;SDS011;5346;48.766;8.674;2023-07-20T00:19:36;4.55;;;2.17;;
10596;SDS011;5346;48.766;8.674;2023-07-20T00:22:11;3.75;;;2.15;;
10596;SDS011;5346;48.766;8.674;2023-07-20T00:24:46;3.63;;;2.35;;
10596;SDS011;5346;48.766;8.674;2023-07-20T00:27:24;5.55;;;2.13;;
10596;SDS011;5346;48.766;8.674;2023-07-20T00:29:58;3.28;;;2.08;;
10596;SDS011;5346;48.766;8.674;2023-07-20T00:32:26;6.20;;;2.47;;
10596;SDS011;5346;48.766;8.674;2023-07-20T00:35:01;2.33;;;2.10;;
10596;SDS011;5346;48.766;8.674;2023-07-20T00:37:29;4.43;;;2.25;;
10596;SDS011;5346;48.766;8.674;2023-07-20T00:40:06;2.70;;;2.42;;
10596;SDS011;5346;48.766;8.674;2023-07-20T00:42:35;3.05;;;2.42;;
10596;SDS011;5346;48.766;8.674;2023-07-20T00:45:11;4.03;;;2.60;;
10596;SDS011;5346;48.766;8.674;2023-07-20T00:47:39;4.10;;;2.30;;
10596;SDS011;5346;48.766;8.674;2023-07-20T00:50:15;8.73;;;2.50;;
10596;SDS011;5346;48.766;8.674;2023-07-20T00:52:43;4.65;;;2.40;;
10596;SDS011;5346;48.766;8.674;2023-07-20T00:55:21;3.47;;;2.33;;
10596;SDS011;5346;48.766;8.674;2023-07-20T00:57:57;3.33;;;2.13;;
10596;SDS011;5346;48.766;8.674;2023-07-20T01:00:33;3.40;;;2.00;;
10596;SDS011;5346;48.766;8.674;2023-07-20T01:03:08;7.18;;;2.33;;
10596;SDS011;5346;48.766;8.674;2023-07-20T01:11:11;2.75;;;2.10;;
10596;SDS011;5346;48.766;8.674;2023-07-20T01:14:02;2.55;;;1.80;;
10596;SDS011;5346;48.766;8.674;2023-07-20T01:16:32;4.35;;;2.30;;
10596;SDS011;5346;48.766;8.674;2023-07-20T01:19:07;6.00;;;2.13;;
10596;SDS011;5346;48.766;8.674;2023-07-20T01:27:36;5.03;;;2.20;;
10596;SDS011;5346;48.766;8.674;2023-07-20T01:33:39;5.10;;;2.17;;
10596;SDS011;5346;48.766;8.674;2023-07-20T01:36:19;5.22;;;2.85;;
10596;SDS011;5346;48.766;8.674;2023-07-20T01:38:58;3.90;;;2.03;;
10596;SDS011;5346;48.766;8.674;2023-07-20T01:41:26;3.67;;;2.15;;
10596;SDS011;5346;48.766;8.674;2023-07-20T01:44:00;7.50;;;2.47;;
10596;SDS011;5346;48.766;8.674;2023-07-20T01:46:37;6.85;;;2.45;;
10596;SDS011;5346;48.766;8.674;2023-07-20T01:49:11;3.25;;;2.20;;
10596;SDS011;5346;48.766;8.674;2023-07-20T01:51:39;3.40;;;2.28;;
10596;SDS011;5346;48.766;8.674;2023-07-20T01:54:13;3.85;;;2.30;;
10596;SDS011;5346;48.766;8.674;2023-07-20T01:56:41;3.40;;;2.33;;
10596;SDS011;5346;48.766;8.674;2023-07-20T01:59:16;3.50;;;2.35;;
10596;SDS011;5346;48.766;8.674;2023-07-20T02:01:50;3.63;;;2.30;;
10596;SDS011;5346;48.766;8.674;2023-07-20T02:04:33;4.60;;;2.45;;
10596;SDS011;5346;48.766;8.674;2023-07-20T02:07:00;4.63;;;2.25;;
10596;SDS011;5346;48.766;8.674;2023-07-20T02:09:38;3.85;;;2.25;;
10596;SDS011;5346;48.766;8.674;2023-07-20T02:12:06;6.15;;;2.55;;
10596;SDS011;5346;48.766;8.674;2023-07-20T02:14:37;3.03;;;2.30;;
10596;SDS011;5346;48.766;8.674;2023-07-20T02:17:11;4.45;;;2.38;;
10596;SDS011;5346;48.766;8.674;2023-07-20T02:19:41;4.40;;;2.33;;
10596;SDS011;5346;48.766;8.674;2023-07-20T02:22:15;2.85;;;2.42;;
10596;SDS011;5346;48.766;8.674;2023-07-20T02:24:43;7.85;;;2.20;;
10596;SDS011;5346;48.766;8.674;2023-07-20T02:27:11;4.78;;;2.50;;
10596;SDS011;5346;48.766;8.674;2023-07-20T02:29:48;2.50;;;2.22;;
10596;SDS011;5346;48.766;8.674;2023-07-20T02:32:31;4.45;;;2.45;;
10596;SDS011;5346;48.766;8.674;2023-07-20T02:35:06;3.72;;;2.13;;
10596;SDS011;5346;48.766;8.674;2023-07-20T02:37:41;4.30;;;2.28;;
10596;SDS011;5346;48.766;8.674;2023-07-20T02:40:09;3.58;;;2.13;;
10596;SDS011;5346;48.766;8.674;2023-07-20T02:42:46;3.10;;;2.20;;
10596;SDS011;5346;48.766;8.674;2023-07-20T02:45:13;3.53;;;2.92;;
10596;SDS011;5346;48.766;8.674;2023-07-20T02:47:47;5.20;;;2.58;;
10596;SDS011;5346;48.766;8.674;2023-07-20T02:50:15;5.65;;;2.13;;
10596;SDS011;5346;48.766;8.674;2023-07-20T02:52:50;6.35;;;2.42;;
10596;SDS011;5346;48.766;8.674;2023-07-20T02:55:18;3.55;;;2.30;;
10596;SDS011;5346;48.766;8.674;2023-07-20T02:57:53;3.25;;;2.38;;
10596;SDS011;5346;48.766;8.674;2023-07-20T03:00:28;3.13;;;2.08;;
10596;SDS011;5346;48.766;8.674;2023-07-20T03:03:03;3.10;;;2.40;;
10596;SDS011;5346;48.766;8.674;2023-07-20T03:05:40;4.25;;;2.38;;
10596;SDS011;5346;48.766;8.674;2023-07-20T03:08:15;5.50;;;2.50;;
10596;SDS011;5346;48.766;8.674;2023-07-20T03:10:43;5.80;;;2.80;;
10596;SDS011;5346;48.766;8.674;2023-07-20T03:13:18;4.10;;;2.70;;
10596;SDS011;5346;48.766;8.674;2023-07-20T03:15:46;4.23;;;2.43;;
10596;SDS011;5346;48.766;8.674;2023-07-20T03:18:21;5.40;;;2.27;;
10596;SDS011;5346;48.766;8.674;2023-07-20T03:20:56;3.43;;;2.50;;
10596;SDS011;5346;48.766;8.674;2023-07-20T03:23:31;3.67;;;2.47;;
10596;SDS011;5346;48.766;8.674;2023-07-20T03:26:06;6.27;;;2.53;;
10596;SDS011;5346;48.766;8.674;2023-07-20T03:28:44;6.57;;;2.50;;
10596;SDS011;5346;48.766;8.674;2023-07-20T03:31:12;4.53;;;2.43;;
10596;SDS011;5346;48.766;8.674;2023-07-20T03:33:48;6.17;;;2.70;;
10596;SDS011;5346;48.766;8.674;2023-07-20T03:36:23;6.03;;;2.70;;
10596;SDS011;5346;48.766;8.674;2023-07-20T03:38:58;5.13;;;2.50;;
10596;SDS011;5346;48.766;8.674;2023-07-20T03:41:33;4.17;;;2.77;;
10596;SDS011;5346;48.766;8.674;2023-07-20T03:44:08;4.70;;;2.30;;
10596;SDS011;5346;48.766;8.674;2023-07-20T03:46:43;3.22;;;2.53;;
10596;SDS011;5346;48.766;8.674;2023-07-20T03:49:18;4.47;;;2.67;;
10596;SDS011;5346;48.766;8.674;2023-07-20T03:51:53;3.73;;;2.67;;
10596;SDS011;5346;48.766;8.674;2023-07-20T03:54:28;4.30;;;2.43;;
10596;SDS011;5346;48.766;8.674;2023-07-20T03:57:03;6.87;;;2.90;;
10596;SDS011;5346;48.766;8.674;2023-07-20T03:59:38;3.47;;;2.40;;
10596;SDS011;5346;48.766;8.674;2023-07-20T04:02:11;4.73;;;2.40;;
10596;SDS011;5346;48.766;8.674;2023-07-20T04:04:53;3.83;;;2.55;;
10596;SDS011;5346;48.766;8.674;2023-07-20T04:07:21;5.15;;;2.60;;
10596;SDS011;5346;48.766;8.674;2023-07-20T04:09:56;4.70;;;2.50;;
10596;SDS011;5346;48.766;8.674;2023-07-20T04:12:24;2.60;;;2.07;;
10596;SDS011;5346;48.766;8.674;2023-07-20T04:14:59;4.32;;;2.65;;
10596;SDS011;5346;48.766;8.674;2023-07-20T04:17:27;4.05;;;2.67;;
10596;SDS011;5346;48.766;8.674;2023-07-20T04:20:03;8.68;;;2.00;;
10596;SDS011;5346;48.766;8.674;2023-07-20T04:22:33;2.45;;;2.08;;
10596;SDS011;5346;48.766;8.674;2023-07-20T04:25:08;6.53;;;2.30;;
10596;SDS011;5346;48.766;8.674;2023-07-20T04:27:36;6.97;;;2.47;;
10596;SDS011;5346;48.766;8.674;2023-07-20T04:30:11;2.97;;;2.22;;
10596;SDS011;5346;48.766;8.674;2023-07-20T04:32:46;4.10;;;2.30;;
10596;SDS011;5346;48.766;8.674;2023-07-20T04:38:21;5.60;;;2.47;;
10596;SDS011;5346;48.766;8.674;2023-07-20T04:40:57;4.90;;;2.50;;
10596;SDS011;5346;48.766;8.674;2023-07-20T04:43:25;4.68;;;2.80;;
10596;SDS011;5346;48.766;8.674;2023-07-20T04:46:00;4.70;;;2.20;;
10596;SDS011;5346;48.766;8.674;2023-07-20T04:48:28;4.50;;;2.17;;
10596;SDS011;5346;48.766;8.674;2023-07-20T04:51:03;2.85;;;2.15;;
10596;SDS011;5346;48.766;8.674;2023-07-20T04:53:38;5.05;;;2.30;;
10596;SDS011;5346;48.766;8.674;2023-07-20T04:56:13;7.18;;;2.20;;
10596;SDS011;5346;48.766;8.674;2023-07-20T04:58:41;5.68;;;2.22;;
10596;SDS011;5346;48.766;8.674;2023-07-20T05:01:16;4.30;;;2.13;;
10596;SDS011;5346;48.766;8.674;2023-07-20T05:03:44;4.95;;;2.47;;
10596;SDS011;5346;48.766;8.674;2023-07-20T05:06:33;4.63;;;2.60;;
10596;SDS011;5346;48.766;8.674;2023-07-20T05:09:00;4.18;;;2.40;;
10596;SDS011;5346;48.766;8.674;2023-07-20T05:11:36;4.75;;;2.35;;
10596;SDS011;5346;48.766;8.674;2023-07-20T05:14:11;3.92;;;2.42;;
10596;SDS011;5346;48.766;8.674;2023-07-20T05:16:39;2.97;;;2.05;;
10596;SDS011;5346;48.766;8.674;2023-07-20T05:19:14;5.32;;;2.40;;
10596;SDS011;5346;48.766;8.674;2023-07-20T05:21:42;5.70;;;2.38;;
10596;SDS011;5346;48.766;8.674;2023-07-20T05:24:18;3.42;;;2.20;;
10596;SDS011;5346;48.766;8.674;2023-07-20T05:26:48;5.60;;;2.15;;
10596;SDS011;5346;48.766;8.674;2023-07-20T05:29:23;3.55;;;2.42;;
10596;SDS011;5346;48.766;8.674;2023-07-20T05:31:52;4.68;;;2.28;;
10596;SDS011;5346;48.766;8.674;2023-07-20T05:34:20;3.95;;;2.40;;
10596;SDS011;5346;48.766;8.674;2023-07-20T05:36:55;5.95;;;2.22;;
10596;SDS011;5346;48.766;8.674;2023-07-20T05:39:38;3.92;;;2.35;;
10596;SDS011;5346;48.766;8.674;2023-07-20T05:42:12;4.55;;;2.10;;
10596;SDS011;5346;48.766;8.674;2023-07-20T05:44:40;4.25;;;2.42;;
10596;SDS011;5346;48.766;8.674;2023-07-20T05:47:14;3.85;;;2.33;;
10596;SDS011;5346;48.766;8.674;2023-07-20T05:49:42;2.67;;;1.95;;
10596;SDS011;5346;48.766;8.674;2023-07-20T05:52:18;4.32;;;2.50;;
10596;SDS011;5346;48.766;8.674;2023-07-20T05:54:45;4.72;;;2.35;;
10596;SDS011;5346;48.766;8.674;2023-07-20T05:57:19;5.25;;;2.65;;
10596;SDS011;5346;48.766;8.674;2023-07-20T05:59:47;4.97;;;2.25;;
10596;SDS011;5346;48.766;8.674;2023-07-20T06:02:21;5.57;;;1.85;;
10596;SDS011;5346;48.766;8.674;2023-07-20T06:05:09;4.00;;;2.28;;
10596;SDS011;5346;48.766;8.674;2023-07-20T06:07:43;4.85;;;2.10;;
10596;SDS011;5346;48.766;8.674;2023-07-20T06:10:11;3.80;;;2.45;;
10596;SDS011;5346;48.766;8.674;2023-07-20T06:12:39;4.82;;;2.30;;
10596;SDS011;5346;48.766;8.674;2023-07-20T06:15:31;3.97;;;2.53;;
10596;SDS011;5346;48.766;8.674;2023-07-20T06:18:08;5.38;;;2.45;;
10596;SDS011;5346;48.766;8.674;2023-07-20T06:20:41;8.40;;;2.30;;
10596;SDS011;5346;48.766;8.674;2023-07-20T06:23:10;6.55;;;2.22;;
10596;SDS011;5346;48.766;8.674;2023-07-20T06:25:44;5.00;;;2.15;;
10596;SDS011;5346;48.766;8.674;2023-07-20T06:28:12;5.50;;;2.63;;
10596;SDS011;5346;48.766;8.674;2023-07-20T06:30:46;4.32;;;2.13;;
10596;SDS011;5346;48.766;8.674;2023-07-20T06:33:20;6.80;;;2.33;;
10596;SDS011;5346;48.766;8.674;2023-07-20T06:35:56;4.18;;;2.40;;
10596;SDS011;5346;48.766;8.674;2023-07-20T06:38:24;6.55;;;2.55;;
10596;SDS011;5346;48.766;8.674;2023-07-20T06:40:58;4.80;;;2.42;;
10596;SDS011;5346;48.766;8.674;2023-07-20T06:43:36;8.93;;;2.97;;
10596;SDS011;5346;48.766;8.674;2023-07-20T06:46:14;5.07;;;2.75;;
10596;SDS011;5346;48.766;8.674;2023-07-20T06:48:49;5.18;;;2.22;;
10596;SDS011;5346;48.766;8.674;2023-07-20T06:51:27;6.57;;;2.30;;
10596;SDS011;5346;48.766;8.674;2023-07-20T06:53:55;3.55;;;2.30;;
10596;SDS011;5346;48.766;8.674;2023-07-20T06:56:29;5.05;;;2.53;;
10596;SDS011;5346;48.766;8.674;2023-07-20T06:59:10;3.58;;;2.42;;
10596;SDS011;5346;48.766;8.674;2023-07-20T07:01:46;7.90;;;3.00;;
10596;SDS011;5346;48.766;8.674;2023-07-20T07:04:19;6.10;;;2.65;;
10596;SDS011;5346;48.766;8.674;2023-07-20T07:07:01;6.03;;;2.30;;
10596;SDS011;5346;48.766;8.674;2023-07-20T07:09:36;5.82;;;2.20;;
10596;SDS011;5346;48.766;8.674;2023-07-20T07:12:04;5.57;;;2.40;;
10596;SDS011;5346;48.766;8.674;2023-07-20T07:14:39;5.07;;;2.53;;
10596;SDS011;5346;48.766;8.674;2023-07-20T07:17:13;6.63;;;2.38;;
10596;SDS011;5346;48.766;8.674;2023-07-20T07:19:48;3.95;;;2.40;;
10596;SDS011;5346;48.766;8.674;2023-07-20T07:22:16;5.10;;;2.65;;
10596;SDS011;5346;48.766;8.674;2023-07-20T07:24:50;6.65;;;2.67;;
10596;SDS011;5346;48.766;8.674;2023-07-20T07:27:25;6.22;;;2.63;;
10596;SDS011;5346;48.766;8.674;2023-07-20T07:29:59;5.82;;;3.03;;
10596;SDS011;5346;48.766;8.674;2023-07-20T07:32:27;2.78;;;2.47;;
10596;SDS011;5346;48.766;8.674;2023-07-20T07:35:01;4.97;;;2.60;;
10596;SDS011;5346;48.766;8.674;2023-07-20T07:37:35;7.13;;;2.40;;
10596;SDS011;5346;48.766;8.674;2023-07-20T07:40:23;6.57;;;2.67;;
10596;SDS011;5346;48.766;8.674;2023-07-20T07:43:04;3.38;;;2.00;;
10596;SDS011;5346;48.766;8.674;2023-07-20T07:45:34;6.18;;;2.65;;
10596;SDS011;5346;48.766;8.674;2023-07-20T07:48:10;5.72;;;2.50;;
10596;SDS011;5346;48.766;8.674;2023-07-20T07:50:46;6.47;;;2.67;;
10596;SDS011;5346;48.766;8.674;2023-07-20T07:53:20;3.42;;;2.03;;
10596;SDS011;5346;48.766;8.674;2023-07-20T07:55:48;5.03;;;2.28;;
10596;SDS011;5346;48.766;8.674;2023-07-20T07:58:23;4.00;;;2.30;;
10596;SDS011;5346;48.766;8.674;2023-07-20T08:00:58;3.40;;;1.80;;
10596;SDS011;5346;48.766;8.674;2023-07-20T08:03:26;6.00;;;2.42;;
10596;SDS011;5346;48.766;8.674;2023-07-20T08:06:01;3.55;;;2.20;;
10596;SDS011;5346;48.766;8.674;2023-07-20T08:08:36;3.63;;;2.10;;
10596;SDS011;5346;48.766;8.674;2023-07-20T08:11:10;2.80;;;2.22;;
10596;SDS011;5346;48.766;8.674;2023-07-20T08:13:41;5.63;;;2.10;;
10596;SDS011;5346;48.766;8.674;2023-07-20T08:16:09;4.43;;;2.42;;
10596;SDS011;5346;48.766;8.674;2023-07-20T08:18:44;4.43;;;2.00;;
10596;SDS011;5346;48.766;8.674;2023-07-20T08:21:12;6.95;;;1.85;;
10596;SDS011;5346;48.766;8.674;2023-07-20T08:23:46;3.97;;;2.20;;
10596;SDS011;5346;48.766;8.674;2023-07-20T08:26:14;4.53;;;2.08;;
10596;SDS011;5346;48.766;8.674;2023-07-20T08:28:49;3.30;;;2.00;;
10596;SDS011;5346;48.766;8.674;2023-07-20T08:31:24;4.32;;;2.10;;
10596;SDS011;5346;48.766;8.674;2023-07-20T08:33:57;3.83;;;2.33;;
10596;SDS011;5346;48.766;8.674;2023-07-20T08:36:46;4.93;;;1.92;;
10596;SDS011;5346;48.766;8.674;2023-07-20T08:39:14;3.45;;;2.08;;
10596;SDS011;5346;48.766;8.674;2023-07-20T08:41:48;2.70;;;2.13;;
10596;SDS011;5346;48.766;8.674;2023-07-20T08:44:16;1.92;;;1.83;;
10596;SDS011;5346;48.766;8.674;2023-07-20T08:46:52;3.10;;;1.80;;
10596;SDS011;5346;48.766;8.674;2023-07-20T08:49:26;3.63;;;1.77;;
10596;SDS011;5346;48.766;8.674;2023-07-20T08:52:00;2.03;;;1.70;;
10596;SDS011;5346;48.766;8.674;2023-07-20T08:54:30;2.25;;;1.70;;
10596;SDS011;5346;48.766;8.674;2023-07-20T08:57:08;1.92;;;1.70;;
10596;SDS011;5346;48.766;8.674;2023-07-20T08:59:48;6.50;;;1.85;;
10596;SDS011;5346;48.766;8.674;2023-07-20T09:02:17;3.53;;;1.65;;
10596;SDS011;5346;48.766;8.674;2023-07-20T09:05:00;3.72;;;1.65;;
10596;SDS011;5346;48.766;8.674;2023-07-20T09:07:28;2.55;;;1.58;;
10596;SDS011;5346;48.766;8.674;2023-07-20T09:10:02;2.30;;;1.77;;
10596;SDS011;5346;48.766;8.674;2023-07-20T09:12:40;2.17;;;1.63;;
10596;SDS011;5346;48.766;8.674;2023-07-20T09:15:16;5.55;;;1.60;;
10596;SDS011;5346;48.766;8.674;2023-07-20T09:17:52;2.50;;;1.98;;
10596;SDS011;5346;48.766;8.674;2023-07-20T09:20:21;2.55;;;1.65;;
10596;SDS011;5346;48.766;8.674;2023-07-20T09:22:56;2.67;;;1.75;;
10596;SDS011;5346;48.766;8.674;2023-07-20T09:25:23;5.53;;;1.70;;
10596;SDS011;5346;48.766;8.674;2023-07-20T09:28:01;2.47;;;1.83;;
10596;SDS011;5346;48.766;8.674;2023-07-20T09:30:31;2.05;;;1.50;;
10596;SDS011;5346;48.766;8.674;2023-07-20T09:33:05;1.90;;;1.30;;
10596;SDS011;5346;48.766;8.674;2023-07-20T09:35:50;3.95;;;1.70;;
10596;SDS011;5346;48.766;8.674;2023-07-20T09:38:44;3.55;;;1.52;;
10596;SDS011;5346;48.766;8.674;2023-07-20T09:41:15;1.95;;;1.48;;
10596;SDS011;5346;48.766;8.674;2023-07-20T09:43:55;2.53;;;1.42;;
10596;SDS011;5346;48.766;8.674;2023-07-20T09:46:50;1.63;;;1.50;;
10596;SDS011;5346;48.766;8.674;2023-07-20T09:49:25;1.55;;;1.40;;
10596;SDS011;5346;48.766;8.674;2023-07-20T09:52:02;1.88;;;1.48;;
10596;SDS011;5346;48.766;8.674;2023-07-20T09:54:32;1.80;;;1.27;;
10596;SDS011;5346;48.766;8.674;2023-07-20T09:57:07;2.67;;;1.60;;
10596;SDS011;5346;48.766;8.674;2023-07-20T09:59:41;3.05;;;1.70;;
10596;SDS011;5346;48.766;8.674;2023-07-20T10:02:30;2.25;;;1.50;;
10596;SDS011;5346;48.766;8.674;2023-07-20T10:05:02;3.05;;;1.50;;
10596;SDS011;5346;48.766;8.674;2023-07-20T10:07:47;2.15;;;1.52;;
10596;SDS011;5346;48.766;8.674;2023-07-20T10:10:37;3.53;;;1.20;;
10596;SDS011;5346;48.766;8.674;2023-07-20T10:13:17;1.80;;;1.38;;
10596;SDS011;5346;48.766;8.674;2023-07-20T10:15:53;1.75;;;1.30;;
10596;SDS011;5346;48.766;8.674;2023-07-20T10:21:17;5.95;;;1.48;;
10596;SDS011;5346;48.766;8.674;2023-07-20T10:23:56;2.15;;;1.30;;
10596;SDS011;5346;48.766;8.674;2023-07-20T10:26:24;2.75;;;1.60;;
10596;SDS011;5346;48.766;8.674;2023-07-20T10:29:03;1.63;;;1.50;;
10596;SDS011;5346;48.766;8.674;2023-07-20T10:31:32;2.95;;;1.60;;
10596;SDS011;5346;48.766;8.674;2023-07-20T10:34:07;4.07;;;1.17;;
10596;SDS011;5346;48.766;8.674;2023-07-20T10:36:43;5.05;;;1.23;;
10596;SDS011;5346;48.766;8.674;2023-07-20T10:39:23;1.73;;;1.45;;
10596;SDS011;5346;48.766;8.674;2023-07-20T10:42:01;1.92;;;1.13;;
10596;SDS011;5346;48.766;8.674;2023-07-20T10:44:41;2.17;;;1.33;;
10596;SDS011;5346;48.766;8.674;2023-07-20T10:47:17;2.58;;;1.40;;
10596;SDS011;5346;48.766;8.674;2023-07-20T10:50:00;1.55;;;1.27;;
10596;SDS011;5346;48.766;8.674;2023-07-20T10:52:42;1.67;;;1.42;;
10596;SDS011;5346;48.766;8.674;2023-07-20T10:55:17;1.60;;;1.30;;
10596;SDS011;5346;48.766;8.674;2023-07-20T10:58:06;1.40;;;1.30;;
10596;SDS011;5346;48.766;8.674;2023-07-20T11:00:54;1.30;;;1.15;;
10596;SDS011;5346;48.766;8.674;2023-07-20T11:03:30;1.55;;;1.42;;
10596;SDS011;5346;48.766;8.674;2023-07-20T11:11:47;2.55;;;1.60;;
10596;SDS011;5346;48.766;8.674;2023-07-20T11:14:25;3.10;;;1.90;;
10596;SDS011;5346;48.766;8.674;2023-07-20T11:17:10;2.33;;;1.50;;
10596;SDS011;5346;48.766;8.674;2023-07-20T11:19:48;1.80;;;1.52;;
10596;SDS011;5346;48.766;8.674;2023-07-20T11:22:25;2.20;;;1.60;;
10596;SDS011;5346;48.766;8.674;2023-07-20T11:25:00;2.20;;;1.85;;
10596;SDS011;5346;48.766;8.674;2023-07-20T11:27:30;1.33;;;1.23;;
10596;SDS011;5346;48.766;8.674;2023-07-20T11:30:05;2.58;;;1.50;;
10596;SDS011;5346;48.766;8.674;2023-07-20T11:32:50;1.55;;;1.45;;
10596;SDS011;5346;48.766;8.674;2023-07-20T11:35:25;1.75;;;1.50;;
10596;SDS011;5346;48.766;8.674;2023-07-20T11:37:52;3.00;;;1.30;;
10596;SDS011;5346;48.766;8.674;2023-07-20T11:40:28;3.22;;;1.50;;
10596;SDS011;5346;48.766;8.674;2023-07-20T11:43:02;1.30;;;1.20;;
10596;SDS011;5346;48.766;8.674;2023-07-20T11:45:39;2.63;;;1.77;;
10596;SDS011;5346;48.766;8.674;2023-07-20T11:48:14;1.40;;;1.30;;
10596;SDS011;5346;48.766;8.674;2023-07-20T11:50:49;3.63;;;1.50;;
10596;SDS011;5346;48.766;8.674;2023-07-20T11:53:18;4.85;;;1.60;;
10596;SDS011;5346;48.766;8.674;2023-07-20T11:56:00;2.60;;;1.35;;
10596;SDS011;5346;48.766;8.674;2023-07-20T11:58:34;2.40;;;1.50;;
10596;SDS011;5346;48.766;8.674;2023-07-20T12:01:08;4.90;;;1.60;;
10596;SDS011;5346;48.766;8.674;2023-07-20T12:03:44;2.65;;;1.50;;
10596;SDS011;5346;48.766;8.674;2023-07-20T12:06:22;1.42;;;1.25;;
10596;SDS011;5346;48.766;8.674;2023-07-20T12:08:56;2.13;;;1.45;;
10596;SDS011;5346;48.766;8.674;2023-07-20T12:14:07;2.13;;;1.55;;
10596;SDS011;5346;48.766;8.674;2023-07-20T12:16:43;4.35;;;1.50;;
10596;SDS011;5346;48.766;8.674;2023-07-20T12:19:25;1.42;;;1.33;;
10596;SDS011;5346;48.766;8.674;2023-07-20T12:21:58;4.10;;;1.70;;
10596;SDS011;5346;48.766;8.674;2023-07-20T12:24:32;3.15;;;2.00;;
10596;SDS011;5346;48.766;8.674;2023-07-20T12:27:01;1.73;;;1.10;;
10596;SDS011;5346;48.766;8.674;2023-07-20T12:29:38;1.55;;;1.20;;
10596;SDS011;5346;48.766;8.674;2023-07-20T12:32:06;2.05;;;1.60;;
10596;SDS011;5346;48.766;8.674;2023-07-20T12:34:41;3.65;;;1.50;;
10596;SDS011;5346;48.766;8.674;2023-07-20T12:37:17;1.67;;;1.30;;
10596;SDS011;5346;48.766;8.674;2023-07-20T12:39:52;2.90;;;1.73;;
10596;SDS011;5346;48.766;8.674;2023-07-20T12:42:26;2.20;;;1.52;;
10596;SDS011;5346;48.766;8.674;2023-07-20T12:44:54;2.00;;;1.77;;
10596;SDS011;5346;48.766;8.674;2023-07-20T12:47:28;3.58;;;1.42;;
10596;SDS011;5346;48.766;8.674;2023-07-20T12:50:03;1.90;;;1.77;;
10596;SDS011;5346;48.766;8.674;2023-07-20T12:52:35;4.20;;;1.52;;
10596;SDS011;5346;48.766;8.674;2023-07-20T12:55:13;1.70;;;1.60;;
10596;SDS011;5346;48.766;8.674;2023-07-20T12:57:47;2.55;;;1.63;;
10596;SDS011;5346;48.766;8.674;2023-07-20T13:00:21;3.13;;;1.55;;
10596;SDS011;5346;48.766;8.674;2023-07-20T13:02:56;4.03;;;1.70;;
10596;SDS011;5346;48.766;8.674;2023-07-20T13:05:41;4.93;;;1.58;;
10596;SDS011;5346;48.766;8.674;2023-07-20T13:08:12;2.10;;;1.60;;
10596;SDS011;5346;48.766;8.674;2023-07-20T13:10:54;3.33;;;1.90;;
10596;SDS011;5346;48.766;8.674;2023-07-20T13:13:36;1.75;;;1.40;;
10596;SDS011;5346;48.766;8.674;2023-07-20T13:16:09;3.58;;;1.52;;
10596;SDS011;5346;48.766;8.674;2023-07-20T13:18:44;1.95;;;1.73;;
10596;SDS011;5346;48.766;8.674;2023-07-20T13:21:11;2.10;;;1.70;;
10596;SDS011;5346;48.766;8.674;2023-07-20T13:23:47;1.95;;;1.55;;
10596;SDS011;5346;48.766;8.674;2023-07-20T13:26:15;2.15;;;1.50;;
10596;SDS011;5346;48.766;8.674;2023-07-20T13:28:50;2.47;;;1.70;;
10596;SDS011;5346;48.766;8.674;2023-07-20T13:31:26;2.47;;;1.30;;
10596;SDS011;5346;48.766;8.674;2023-07-20T13:34:07;2.70;;;1.60;;
10596;SDS011;5346;48.766;8.674;2023-07-20T13:36:35;4.40;;;1.50;;
10596;SDS011;5346;48.766;8.674;2023-07-20T13:39:09;2.80;;;1.50;;
10596;SDS011;5346;48.766;8.674;2023-07-20T13:41:38;2.08;;;1.67;;
10596;SDS011;5346;48.766;8.674;2023-07-20T13:44:14;1.70;;;1.60;;
10596;SDS011;5346;48.766;8.674;2023-07-20T13:46:48;1.70;;;1.40;;
10596;SDS011;5346;48.766;8.674;2023-07-20T13:49:43;1.77;;;1.35;;
10596;SDS011;5346;48.766;8.674;2023-07-20T13:52:30;1.50;;;1.40;;
10596;SDS011;5346;48.766;8.674;2023-07-20T13:55:01;2.65;;;1.60;;
10596;SDS011;5346;48.766;8.674;2023-07-20T13:57:37;1.50;;;1.40;;
10596;SDS011;5346;48.766;8.674;2023-07-20T14:00:05;1.52;;;1.42;;
10596;SDS011;5346;48.766;8.674;2023-07-20T14:02:47;4.82;;;1.95;;
10596;SDS011;5346;48.766;8.674;2023-07-20T14:05:18;2.08;;;1.70;;
10596;SDS011;5346;48.766;8.674;2023-07-20T14:08:06;1.75;;;1.50;;
10596;SDS011;5346;48.766;8.674;2023-07-20T14:10:35;3.67;;;1.42;;
10596;SDS011;5346;48.766;8.674;2023-07-20T14:13:11;2.78;;;1.67;;
10596;SDS011;5346;48.766;8.674;2023-07-20T14:15:39;3.25;;;1.70;;
10596;SDS011;5346;48.766;8.674;2023-07-20T14:18:14;2.90;;;1.35;;
10596;SDS011;5346;48.766;8.674;2023-07-20T14:20:45;2.58;;;1.63;;
10596;SDS011;5346;48.766;8.674;2023-07-20T14:23:13;1.90;;;1.52;;
10596;SDS011;5346;48.766;8.674;2023-07-20T14:25:50;2.05;;;1.80;;
10596;SDS011;5346;48.766;8.674;2023-07-20T14:28:18;4.97;;;1.73;;
10596;SDS011;5346;48.766;8.674;2023-07-20T14:30:52;3.30;;;2.08;;
10596;SDS011;5346;48.766;8.674;2023-07-20T14:33:22;2.58;;;1.55;;
10596;SDS011;5346;48.766;8.674;2023-07-20T14:35:57;2.55;;;1.58;;
10596;SDS011;5346;48.766;8.674;2023-07-20T14:38:33;5.38;;;1.60;;
10596;SDS011;5346;48.766;8.674;2023-07-20T14:41:02;1.85;;;1.42;;
10596;SDS011;5346;48.766;8.674;2023-07-20T14:43:38;2.10;;;1.63;;
10596;SDS011;5346;48.766;8.674;2023-07-20T14:46:07;2.03;;;1.55;;
10596;SDS011;5346;48.766;8.674;2023-07-20T14:48:45;2.58;;;1.80;;
10596;SDS011;5346;48.766;8.674;2023-07-20T14:51:14;2.50;;;1.45;;
10596;SDS011;5346;48.766;8.674;2023-07-20T14:53:52;3.00;;;1.65;;
10596;SDS011;5346;48.766;8.674;2023-07-20T14:56:26;2.13;;;1.52;;
10596;SDS011;5346;48.766;8.674;2023-07-20T14:59:00;2.10;;;1.30;;
10596;SDS011;5346;48.766;8.674;2023-07-20T15:01:37;3.97;;;1.67;;
10596;SDS011;5346;48.766;8.674;2023-07-20T15:04:12;2.53;;;1.50;;
10596;SDS011;5346;48.766;8.674;2023-07-20T15:06:46;2.45;;;1.88;;
10596;SDS011;5346;48.766;8.674;2023-07-20T15:09:27;2.10;;;1.60;;
10596;SDS011;5346;48.766;8.674;2023-07-20T15:11:55;1.67;;;1.55;;
10596;SDS011;5346;48.766;8.674;2023-07-20T15:14:29;2.05;;;1.63;;
10596;SDS011;5346;48.766;8.674;2023-07-20T15:16:58;4.35;;;1.80;;
10596;SDS011;5346;48.766;8.674;2023-07-20T15:19:33;1.42;;;1.30;;
10596;SDS011;5346;48.766;8.674;2023-07-20T15:22:02;1.95;;;1.52;;
10596;SDS011;5346;48.766;8.674;2023-07-20T15:24:37;1.90;;;1.60;;
10596;SDS011;5346;48.766;8.674;2023-07-20T15:27:11;2.63;;;1.67;;
10596;SDS011;5346;48.766;8.674;2023-07-20T15:29:46;1.40;;;1.30;;
10596;SDS011;5346;48.766;8.674;2023-07-20T15:32:15;2.00;;;1.50;;
10596;SDS011;5346;48.766;8.674;2023-07-20T15:34:53;1.60;;;1.50;;
10596;SDS011;5346;48.766;8.674;2023-07-20T15:37:20;1.90;;;1.50;;
10596;SDS011;5346;48.766;8.674;2023-07-20T15:39:55;2.55;;;1.45;;
10596;SDS011;5346;48.766;8.674;2023-07-20T15:42:23;1.75;;;1.38;;
10596;SDS011;5346;48.766;8.674;2023-07-20T15:45:01;1.73;;;1.45;;
10596;SDS011;5346;48.766;8.674;2023-07-20T15:47:29;2.13;;;1.58;;
10596;SDS011;5346;48.766;8.674;2023-07-20T15:50:06;1.83;;;1.35;;
10596;SDS011;5346;48.766;8.674;2023-07-20T15:52:34;1.67;;;1.40;;
10596;SDS011;5346;48.766;8.674;2023-07-20T15:55:10;1.67;;;1.55;;
10596;SDS011;5346;48.766;8.674;2023-07-20T15:57:38;2.45;;;1.75;;
10596;SDS011;5346;48.766;8.674;2023-07-20T16:00:12;1.65;;;1.33;;
10596;SDS011;5346;48.766;8.674;2023-07-20T16:02:48;3.42;;;1.58;;
10596;SDS011;5346;48.766;8.674;2023-07-20T16:05:33;2.78;;;1.60;;
10596;SDS011;5346;48.766;8.674;2023-07-20T16:08:08;4.03;;;1.60;;
10596;SDS011;5346;48.766;8.674;2023-07-20T16:10:42;2.55;;;1.60;;
10596;SDS011;5346;48.766;8.674;2023-07-20T16:13:20;2.25;;;1.42;;